»·PEaware :: UAL1356 KABQ-KJAC

UAL1356 :: KABQ-KJAC

FLIGHT INFORMATION

Flight Status: Arrived
Operator:
United Airlines
More flights by this operator :: More flights under this callsign
Pilot: Utku A. (15598)
Aircraft: BOEING 737-300
(B733)
More flights by this aircraft type
Origin: KABQ Albuquerque Intl Sunport
United States
Destination: KJAC Jackson Hole
United States
More flights between these airports :: More routes between these airports
Route: LARGO3 RSK J15 JNC OCS BPI
File this flight plan on PilotEdge
Remarks:
Altitude:
(Current/Filed)
34,000ft
Speed:
(Current/Filed)
449kts
Departed: 29-Jul-18 06:04 PM
Arrived: 29-Jul-18 07:45 PM
Distance/Time
Traveled:
548nm/1:41
Distance/Time
To Go:
Arrived

Flight Plot

Page will automatically refresh every two minutes.

Flight plan parsing failed; only flown route is shown


Map Options




Map Legend


Flown Route
Filed Route
Departure Airport
Arrival Airport
Navaid (VOR, NDB)
Fix

Horizontal Profiles

Position Reports

Time Latitude Longitude Heading Altitude Ground
Speed
29-Jul-18 17:35 35.046928 -106.616382 11 5312ft 0kts
29-Jul-18 17:36 35.046928 -106.616382 11 5312ft 0kts
29-Jul-18 17:37 35.046928 -106.616382 11 5312ft 0kts
29-Jul-18 17:38 35.046928 -106.616382 11 5312ft 0kts
29-Jul-18 17:39 35.046928 -106.616382 11 5312ft 0kts
29-Jul-18 17:40 35.046928 -106.616382 11 5312ft 0kts
29-Jul-18 17:41 35.046928 -106.616382 11 5312ft 0kts
29-Jul-18 17:42 35.046928 -106.616382 11 5312ft 0kts
29-Jul-18 17:43 35.046928 -106.616382 11 5312ft 0kts
29-Jul-18 17:44 35.046928 -106.616382 11 5312ft 0kts
29-Jul-18 17:45 35.046928 -106.616382 11 5312ft 0kts
29-Jul-18 17:46 35.046928 -106.616382 11 5312ft 0kts
29-Jul-18 17:47 35.046928 -106.616382 11 5312ft 0kts
29-Jul-18 17:48 35.046928 -106.616382 11 5312ft 0kts
29-Jul-18 17:49 35.046928 -106.616382 11 5312ft 0kts
29-Jul-18 17:50 35.046928 -106.616382 11 5312ft 0kts
29-Jul-18 17:51 35.046928 -106.616382 11 5312ft 0kts
29-Jul-18 17:52 35.046928 -106.616382 11 5312ft 0kts
29-Jul-18 17:53 35.046928 -106.616382 11 5312ft 0kts
29-Jul-18 17:54 35.046928 -106.616382 11 5312ft 0kts
29-Jul-18 17:55 35.046928 -106.616382 11 5312ft 0kts
29-Jul-18 17:56 35.046654 -106.616344 331 5313ft 2kts
29-Jul-18 17:57 35.046433 -106.615773 268 5314ft 0kts
29-Jul-18 17:58 35.046433 -106.615757 268 5314ft 0kts
29-Jul-18 17:59 35.046433 -106.615757 268 5314ft 0kts
29-Jul-18 18:00 35.046428 -106.616184 269 5313ft 4kts
29-Jul-18 18:01 35.046436 -106.618168 270 5312ft 6kts
29-Jul-18 18:02 35.045593 -106.620285 270 5307ft 10kts
29-Jul-18 18:03 35.045335 -106.621343 200 5301ft 0kts
29-Jul-18 18:04 35.044743 -106.621393 178 5301ft 5kts
29-Jul-18 18:05 35.044301 -106.614937 90 5315ft 92kts
29-Jul-18 18:06 35.057532 -106.552597 26 6589ft 218kts
29-Jul-18 18:07 35.111133 -106.580986 308 8701ft 240kts
29-Jul-18 18:08 35.154271 -106.628339 317 10256ft 259kts
29-Jul-18 18:09 35.211536 -106.688997 317 12154ft 290kts
29-Jul-18 18:10 35.279228 -106.762588 317 12853ft 363kts
29-Jul-18 18:11 35.356776 -106.845352 326 15034ft 380kts
29-Jul-18 18:12 35.439338 -106.915204 336 17864ft 355kts
29-Jul-18 18:13 35.536750 -106.924421 353 19490ft 371kts
29-Jul-18 18:14 35.641247 -106.934192 355 21320ft 382kts
29-Jul-18 18:15 35.747782 -106.937759 0 23147ft 391kts
29-Jul-18 18:16 35.857123 -106.940844 351 24749ft 398kts
29-Jul-18 18:17 35.968127 -106.956763 351 26232ft 407kts
29-Jul-18 18:18 36.061468 -107.024474 307 27535ft 408kts
29-Jul-18 18:19 36.131043 -107.132792 308 29189ft 407kts
29-Jul-18 18:20 36.200689 -107.240097 307 30977ft 398kts
29-Jul-18 18:21 36.268933 -107.345657 307 32494ft 390kts
29-Jul-18 18:22 36.335414 -107.448812 307 33758ft 383kts
29-Jul-18 18:23 36.401551 -107.551753 308 34164ft 386kts
29-Jul-18 18:24 36.467524 -107.654748 307 34179ft 386kts
29-Jul-18 18:25 36.533619 -107.758509 307 34155ft 384kts
29-Jul-18 18:26 36.599700 -107.862317 307 34158ft 384kts
29-Jul-18 18:27 36.665718 -107.966333 307 34157ft 384kts
29-Jul-18 18:28 36.731585 -108.070426 307 34157ft 383kts
29-Jul-18 18:29 36.827367 -108.122684 343 34183ft 397kts
29-Jul-18 18:30 36.934592 -108.153155 338 34250ft 400kts
29-Jul-18 18:31 37.043080 -108.184820 338 34268ft 401kts
29-Jul-18 18:32 37.150220 -108.216047 338 34269ft 379kts
29-Jul-18 18:33 37.253411 -108.246449 338 34174ft 394kts
29-Jul-18 18:34 37.361330 -108.278223 338 34224ft 401kts
29-Jul-18 18:35 37.468302 -108.309822 338 34333ft 398kts
29-Jul-18 18:36 37.575774 -108.341694 338 34518ft 399kts
29-Jul-18 18:37 37.683120 -108.373605 338 34507ft 398kts
29-Jul-18 18:38 37.791150 -108.403165 351 34495ft 410kts
29-Jul-18 18:39 37.904377 -108.364427 9 34514ft 433kts
29-Jul-18 18:40 38.017311 -108.317065 9 34515ft 413kts
29-Jul-18 18:41 38.126536 -108.270400 9 34730ft 420kts
29-Jul-18 18:42 38.237428 -108.223579 6 34985ft 428kts
29-Jul-18 18:43 38.340572 -108.253009 336 34674ft 387kts
29-Jul-18 18:44 38.443643 -108.279749 341 34382ft 393kts
29-Jul-18 18:45 38.550419 -108.303653 341 34148ft 393kts
29-Jul-18 18:46 38.658299 -108.327806 341 34159ft 395kts
29-Jul-18 18:47 38.766188 -108.352019 341 34158ft 394kts
29-Jul-18 18:48 38.873560 -108.376190 343 34193ft 387kts
29-Jul-18 18:49 38.977762 -108.399764 341 34120ft 390kts
29-Jul-18 18:50 39.085234 -108.424081 341 34109ft 396kts
29-Jul-18 18:51 39.190109 -108.447793 341 34104ft 395kts
29-Jul-18 18:52 39.298121 -108.472399 341 34103ft 395kts
29-Jul-18 18:53 39.405843 -108.497029 341 34103ft 395kts
29-Jul-18 18:54 39.513546 -108.521731 341 34104ft 395kts
29-Jul-18 18:55 39.621010 -108.546455 341 34110ft 395kts
29-Jul-18 18:56 39.728647 -108.571301 341 34160ft 395kts
29-Jul-18 18:57 39.836482 -108.596265 341 34157ft 395kts
29-Jul-18 18:58 39.944422 -108.621336 341 34158ft 395kts
29-Jul-18 18:59 40.051913 -108.646383 341 34157ft 395kts
29-Jul-18 19:00 40.156294 -108.670940 341 34159ft 394kts
29-Jul-18 19:01 40.263855 -108.696158 341 34158ft 394kts
29-Jul-18 19:02 40.371370 -108.721449 341 34158ft 394kts
29-Jul-18 19:03 40.479043 -108.746859 341 34157ft 394kts
29-Jul-18 19:04 40.586511 -108.772311 341 34159ft 395kts
29-Jul-18 19:05 40.694696 -108.798003 341 34157ft 395kts
29-Jul-18 19:06 40.802046 -108.823589 341 34158ft 395kts
29-Jul-18 19:07 40.909488 -108.849284 341 34353ft 395kts
29-Jul-18 19:08 41.017191 -108.875113 341 34346ft 394kts
29-Jul-18 19:09 41.121972 -108.900318 341 34310ft 396kts
29-Jul-18 19:10 41.229759 -108.926004 341 34336ft 397kts
29-Jul-18 19:11 41.338154 -108.953051 341 34349ft 399kts
29-Jul-18 19:12 41.446693 -108.979768 341 34344ft 399kts
29-Jul-18 19:13 41.555959 -109.006719 341 34347ft 399kts
29-Jul-18 19:14 41.646156 -109.075200 314 34349ft 376kts
29-Jul-18 19:15 41.727101 -109.163840 315 34346ft 377kts
29-Jul-18 19:16 41.808260 -109.252262 315 34346ft 377kts
29-Jul-18 19:17 41.888495 -109.339931 316 34338ft 371kts
29-Jul-18 19:18 41.968536 -109.427686 316 34186ft 372kts
29-Jul-18 19:19 42.048510 -109.515683 317 32956ft 377kts
29-Jul-18 19:20 42.128510 -109.603827 317 31176ft 384kts
29-Jul-18 19:21 42.210667 -109.694823 317 29399ft 392kts
29-Jul-18 19:22 42.295127 -109.788771 317 27620ft 398kts
29-Jul-18 19:23 42.384464 -109.874692 333 25821ft 392kts
29-Jul-18 19:24 42.476533 -109.938886 328 24009ft 363kts
29-Jul-18 19:25 42.564686 -110.002710 328 22659ft 361kts
29-Jul-18 19:26 42.651974 -110.066091 328 21469ft 357kts
29-Jul-18 19:27 42.739389 -110.129768 328 20155ft 350kts
29-Jul-18 19:28 42.824738 -110.192159 328 18763ft 347kts
29-Jul-18 19:29 42.907386 -110.252737 328 17543ft 330kts
29-Jul-18 19:30 42.990139 -110.313604 331 16351ft 344kts
29-Jul-18 19:31 43.071363 -110.373511 331 15141ft 325kts
29-Jul-18 19:32 43.145578 -110.428274 332 13915ft 297kts
29-Jul-18 19:33 43.213841 -110.482804 316 12884ft 279kts
29-Jul-18 19:34 43.234202 -110.580030 255 13007ft 279kts
29-Jul-18 19:35 43.207843 -110.678464 250 12963ft 278kts
29-Jul-18 19:36 43.182445 -110.773353 249 12898ft 262kts
29-Jul-18 19:37 43.189869 -110.867002 310 12687ft 260kts
29-Jul-18 19:38 43.248946 -110.908128 3 11436ft 231kts
29-Jul-18 19:39 43.309886 -110.882365 19 10956ft 231kts
29-Jul-18 19:40 43.369404 -110.853419 19 10417ft 220kts
29-Jul-18 19:41 43.424714 -110.826619 19 9474ft 202kts
29-Jul-18 19:42 43.477552 -110.800921 19 9437ft 200kts
29-Jul-18 19:43 43.523944 -110.778222 20 8129ft 166kts
29-Jul-18 19:44 43.566304 -110.757628 17 7123ft 160kts
29-Jul-18 19:45 43.606226 -110.738359 20 6430ft 98kts
29-Jul-18 19:46 43.614777 -110.732551 188 6447ft 10kts
29-Jul-18 19:47 43.611155 -110.734306 199 6441ft 16kts
29-Jul-18 19:48 43.605931 -110.736855 199 6429ft 18kts
29-Jul-18 19:49 43.603159 -110.737484 109 6426ft 3kts
29-Jul-18 19:50 43.603098 -110.737248 110 6426ft 0kts

Navigation Log

Ident Type
Flight plan parsing failed, navigation log unavailable